sensor_id;sensor_type;location;lat;lon;timestamp;P1;durP1;ratioP1;P2;durP2;ratioP2
83632;SDS011;73595;53.084;6.696;2024-01-30T00:00:17;27.25;;;18.00;;
83632;SDS011;73595;53.084;6.696;2024-01-30T00:02:43;26.60;;;17.15;;
83632;SDS011;73595;53.084;6.696;2024-01-30T00:05:10;27.02;;;17.30;;
83632;SDS011;73595;53.084;6.696;2024-01-30T00:07:40;27.23;;;16.35;;
83632;SDS011;73595;53.084;6.696;2024-01-30T00:10:05;23.35;;;16.15;;
83632;SDS011;73595;53.084;6.696;2024-01-30T00:12:31;24.88;;;16.27;;
83632;SDS011;73595;53.084;6.696;2024-01-30T00:14:57;24.08;;;16.05;;
83632;SDS011;73595;53.084;6.696;2024-01-30T00:17:23;26.50;;;16.52;;
83632;SDS011;73595;53.084;6.696;2024-01-30T00:19:51;26.50;;;17.25;;
83632;SDS011;73595;53.084;6.696;2024-01-30T00:22:17;31.08;;;16.33;;
83632;SDS011;73595;53.084;6.696;2024-01-30T00:24:44;24.35;;;14.95;;
83632;SDS011;73595;53.084;6.696;2024-01-30T00:27:11;24.58;;;15.90;;
83632;SDS011;73595;53.084;6.696;2024-01-30T00:29:36;27.70;;;16.77;;
83632;SDS011;73595;53.084;6.696;2024-01-30T00:32:05;24.35;;;16.00;;
83632;SDS011;73595;53.084;6.696;2024-01-30T00:34:32;25.73;;;17.23;;
83632;SDS011;73595;53.084;6.696;2024-01-30T00:36:59;29.98;;;16.33;;
83632;SDS011;73595;53.084;6.696;2024-01-30T00:39:26;24.02;;;16.25;;
83632;SDS011;73595;53.084;6.696;2024-01-30T00:41:51;24.17;;;15.77;;
83632;SDS011;73595;53.084;6.696;2024-01-30T00:44:17;22.92;;;14.95;;
83632;SDS011;73595;53.084;6.696;2024-01-30T00:46:43;25.45;;;17.25;;
83632;SDS011;73595;53.084;6.696;2024-01-30T00:49:08;27.88;;;17.85;;
83632;SDS011;73595;53.084;6.696;2024-01-30T00:51:33;23.08;;;16.30;;
83632;SDS011;73595;53.084;6.696;2024-01-30T00:53:59;28.20;;;16.35;;
83632;SDS011;73595;53.084;6.696;2024-01-30T00:56:24;23.50;;;15.70;;
83632;SDS011;73595;53.084;6.696;2024-01-30T00:58:50;27.63;;;17.13;;
83632;SDS011;73595;53.084;6.696;2024-01-30T01:01:15;23.05;;;16.58;;
83632;SDS011;73595;53.084;6.696;2024-01-30T01:03:41;29.50;;;17.65;;
83632;SDS011;73595;53.084;6.696;2024-01-30T01:06:08;24.02;;;16.40;;
83632;SDS011;73595;53.084;6.696;2024-01-30T01:08:34;29.30;;;18.02;;
83632;SDS011;73595;53.084;6.696;2024-01-30T01:11:01;28.77;;;18.58;;
83632;SDS011;73595;53.084;6.696;2024-01-30T01:13:26;28.33;;;17.42;;
83632;SDS011;73595;53.084;6.696;2024-01-30T01:15:51;23.48;;;17.17;;
83632;SDS011;73595;53.084;6.696;2024-01-30T01:18:17;24.30;;;15.88;;
83632;SDS011;73595;53.084;6.696;2024-01-30T01:20:42;22.30;;;15.35;;
83632;SDS011;73595;53.084;6.696;2024-01-30T01:23:08;25.08;;;14.70;;
83632;SDS011;73595;53.084;6.696;2024-01-30T01:25:33;29.50;;;17.50;;
83632;SDS011;73595;53.084;6.696;2024-01-30T01:27:58;25.40;;;15.90;;
83632;SDS011;73595;53.084;6.696;2024-01-30T01:30:26;25.35;;;16.45;;
83632;SDS011;73595;53.084;6.696;2024-01-30T01:32:51;23.30;;;14.73;;
83632;SDS011;73595;53.084;6.696;2024-01-30T01:35:22;27.55;;;15.70;;
83632;SDS011;73595;53.084;6.696;2024-01-30T01:37:49;22.83;;;14.75;;
83632;SDS011;73595;53.084;6.696;2024-01-30T01:40:20;26.48;;;14.95;;
83632;SDS011;73595;53.084;6.696;2024-01-30T01:42:47;21.60;;;14.02;;
83632;SDS011;73595;53.084;6.696;2024-01-30T01:45:16;21.90;;;15.48;;
83632;SDS011;73595;53.084;6.696;2024-01-30T01:47:42;22.83;;;14.57;;
83632;SDS011;73595;53.084;6.696;2024-01-30T01:50:11;21.08;;;14.98;;
83632;SDS011;73595;53.084;6.696;2024-01-30T01:52:40;22.60;;;15.43;;
83632;SDS011;73595;53.084;6.696;2024-01-30T01:55:06;26.55;;;15.27;;
83632;SDS011;73595;53.084;6.696;2024-01-30T01:57:33;22.05;;;14.63;;
83632;SDS011;73595;53.084;6.696;2024-01-30T02:00:01;22.15;;;14.63;;
83632;SDS011;73595;53.084;6.696;2024-01-30T02:02:30;23.48;;;15.02;;
83632;SDS011;73595;53.084;6.696;2024-01-30T02:05:02;19.85;;;13.88;;
83632;SDS011;73595;53.084;6.696;2024-01-30T02:07:29;26.02;;;14.27;;
83632;SDS011;73595;53.084;6.696;2024-01-30T02:09:58;23.30;;;13.55;;
83632;SDS011;73595;53.084;6.696;2024-01-30T02:12:23;23.95;;;14.68;;
83632;SDS011;73595;53.084;6.696;2024-01-30T02:14:50;24.00;;;13.98;;
83632;SDS011;73595;53.084;6.696;2024-01-30T02:17:16;21.08;;;13.93;;
83632;SDS011;73595;53.084;6.696;2024-01-30T02:19:42;21.92;;;13.73;;
83632;SDS011;73595;53.084;6.696;2024-01-30T02:22:07;23.23;;;13.88;;
83632;SDS011;73595;53.084;6.696;2024-01-30T02:24:35;25.35;;;13.40;;
83632;SDS011;73595;53.084;6.696;2024-01-30T02:27:00;21.40;;;13.80;;
83632;SDS011;73595;53.084;6.696;2024-01-30T02:29:27;19.60;;;13.00;;
83632;SDS011;73595;53.084;6.696;2024-01-30T02:31:53;20.80;;;12.90;;
83632;SDS011;73595;53.084;6.696;2024-01-30T02:34:19;18.38;;;13.05;;
83632;SDS011;73595;53.084;6.696;2024-01-30T02:36:44;21.73;;;13.40;;
83632;SDS011;73595;53.084;6.696;2024-01-30T02:39:12;23.35;;;13.98;;
83632;SDS011;73595;53.084;6.696;2024-01-30T02:41:37;28.95;;;14.90;;
83632;SDS011;73595;53.084;6.696;2024-01-30T02:44:07;21.77;;;13.68;;
83632;SDS011;73595;53.084;6.696;2024-01-30T02:46:36;22.83;;;13.65;;
83632;SDS011;73595;53.084;6.696;2024-01-30T02:49:02;20.63;;;13.57;;
83632;SDS011;73595;53.084;6.696;2024-01-30T02:51:28;20.67;;;13.85;;
83632;SDS011;73595;53.084;6.696;2024-01-30T02:53:53;23.30;;;13.98;;
83632;SDS011;73595;53.084;6.696;2024-01-30T02:56:18;18.42;;;12.93;;
83632;SDS011;73595;53.084;6.696;2024-01-30T02:58:46;18.92;;;13.10;;
83632;SDS011;73595;53.084;6.696;2024-01-30T03:01:15;19.10;;;13.48;;
83632;SDS011;73595;53.084;6.696;2024-01-30T03:03:40;24.02;;;13.23;;
83632;SDS011;73595;53.084;6.696;2024-01-30T03:06:06;20.77;;;13.63;;
83632;SDS011;73595;53.084;6.696;2024-01-30T03:08:33;18.27;;;12.18;;
83632;SDS011;73595;53.084;6.696;2024-01-30T03:11:00;21.65;;;13.05;;
83632;SDS011;73595;53.084;6.696;2024-01-30T03:13:26;20.90;;;13.20;;
83632;SDS011;73595;53.084;6.696;2024-01-30T03:15:51;18.95;;;12.38;;
83632;SDS011;73595;53.084;6.696;2024-01-30T03:18:16;18.77;;;13.05;;
83632;SDS011;73595;53.084;6.696;2024-01-30T03:20:43;23.58;;;13.68;;
83632;SDS011;73595;53.084;6.696;2024-01-30T03:23:09;21.02;;;12.43;;
83632;SDS011;73595;53.084;6.696;2024-01-30T03:25:34;22.45;;;13.25;;
83632;SDS011;73595;53.084;6.696;2024-01-30T03:28:04;19.92;;;12.77;;
83632;SDS011;73595;53.084;6.696;2024-01-30T03:30:29;21.27;;;13.60;;
83632;SDS011;73595;53.084;6.696;2024-01-30T03:32:55;18.92;;;12.77;;
83632;SDS011;73595;53.084;6.696;2024-01-30T03:35:21;21.63;;;13.63;;
83632;SDS011;73595;53.084;6.696;2024-01-30T03:37:46;20.05;;;13.70;;
83632;SDS011;73595;53.084;6.696;2024-01-30T03:40:11;18.08;;;12.32;;
83632;SDS011;73595;53.084;6.696;2024-01-30T03:42:38;19.58;;;13.20;;
83632;SDS011;73595;53.084;6.696;2024-01-30T03:45:03;21.95;;;12.93;;
83632;SDS011;73595;53.084;6.696;2024-01-30T03:47:29;19.98;;;13.75;;
83632;SDS011;73595;53.084;6.696;2024-01-30T03:49:57;19.10;;;12.57;;
83632;SDS011;73595;53.084;6.696;2024-01-30T03:52:22;21.73;;;13.75;;
83632;SDS011;73595;53.084;6.696;2024-01-30T03:54:49;19.40;;;13.32;;
83632;SDS011;73595;53.084;6.696;2024-01-30T03:57:14;22.45;;;13.00;;
83632;SDS011;73595;53.084;6.696;2024-01-30T03:59:41;19.58;;;12.48;;
83632;SDS011;73595;53.084;6.696;2024-01-30T04:02:07;18.73;;;12.63;;
83632;SDS011;73595;53.084;6.696;2024-01-30T04:04:34;18.42;;;12.43;;
83632;SDS011;73595;53.084;6.696;2024-01-30T04:07:02;22.40;;;13.27;;
83632;SDS011;73595;53.084;6.696;2024-01-30T04:09:28;19.88;;;12.95;;
83632;SDS011;73595;53.084;6.696;2024-01-30T04:11:53;19.20;;;12.18;;
83632;SDS011;73595;53.084;6.696;2024-01-30T04:14:19;18.85;;;12.38;;
83632;SDS011;73595;53.084;6.696;2024-01-30T04:16:44;19.13;;;12.50;;
83632;SDS011;73595;53.084;6.696;2024-01-30T04:19:10;20.27;;;12.57;;
83632;SDS011;73595;53.084;6.696;2024-01-30T04:21:39;19.88;;;12.27;;
83632;SDS011;73595;53.084;6.696;2024-01-30T04:24:06;18.30;;;12.18;;
83632;SDS011;73595;53.084;6.696;2024-01-30T04:26:33;18.23;;;11.63;;
83632;SDS011;73595;53.084;6.696;2024-01-30T04:29:07;19.33;;;11.60;;
83632;SDS011;73595;53.084;6.696;2024-01-30T04:31:36;20.52;;;12.55;;
83632;SDS011;73595;53.084;6.696;2024-01-30T04:34:02;17.80;;;12.30;;
83632;SDS011;73595;53.084;6.696;2024-01-30T04:36:27;20.73;;;11.93;;
83632;SDS011;73595;53.084;6.696;2024-01-30T04:38:52;18.23;;;11.57;;
83632;SDS011;73595;53.084;6.696;2024-01-30T04:41:18;21.88;;;12.52;;
83632;SDS011;73595;53.084;6.696;2024-01-30T04:43:44;19.63;;;11.68;;
83632;SDS011;73595;53.084;6.696;2024-01-30T04:46:16;20.48;;;12.15;;
83632;SDS011;73595;53.084;6.696;2024-01-30T04:48:44;21.05;;;11.93;;
83632;SDS011;73595;53.084;6.696;2024-01-30T04:51:10;23.73;;;12.45;;
83632;SDS011;73595;53.084;6.696;2024-01-30T04:53:41;20.13;;;12.45;;
83632;SDS011;73595;53.084;6.696;2024-01-30T04:56:29;22.25;;;11.82;;
83632;SDS011;73595;53.084;6.696;2024-01-30T04:59:16;17.27;;;12.07;;
83632;SDS011;73595;53.084;6.696;2024-01-30T05:01:42;18.30;;;11.88;;
83632;SDS011;73595;53.084;6.696;2024-01-30T05:04:12;17.70;;;11.38;;
83632;SDS011;73595;53.084;6.696;2024-01-30T05:06:38;19.88;;;11.82;;
83632;SDS011;73595;53.084;6.696;2024-01-30T05:09:03;18.45;;;12.02;;
83632;SDS011;73595;53.084;6.696;2024-01-30T05:11:29;19.52;;;11.55;;
83632;SDS011;73595;53.084;6.696;2024-01-30T05:13:56;18.95;;;12.10;;
83632;SDS011;73595;53.084;6.696;2024-01-30T05:16:23;20.98;;;12.27;;
83632;SDS011;73595;53.084;6.696;2024-01-30T05:18:49;21.13;;;11.93;;
83632;SDS011;73595;53.084;6.696;2024-01-30T05:21:16;16.52;;;11.50;;
83632;SDS011;73595;53.084;6.696;2024-01-30T05:23:41;18.05;;;11.30;;
83632;SDS011;73595;53.084;6.696;2024-01-30T05:26:12;17.52;;;11.60;;
83632;SDS011;73595;53.084;6.696;2024-01-30T05:28:39;19.48;;;11.55;;
83632;SDS011;73595;53.084;6.696;2024-01-30T05:31:04;18.58;;;12.55;;
83632;SDS011;73595;53.084;6.696;2024-01-30T05:33:30;18.10;;;12.00;;
83632;SDS011;73595;53.084;6.696;2024-01-30T05:35:55;19.95;;;12.48;;
83632;SDS011;73595;53.084;6.696;2024-01-30T05:38:21;18.63;;;12.18;;
83632;SDS011;73595;53.084;6.696;2024-01-30T05:40:49;18.05;;;11.50;;
83632;SDS011;73595;53.084;6.696;2024-01-30T05:43:15;20.60;;;12.45;;
83632;SDS011;73595;53.084;6.696;2024-01-30T05:45:41;19.35;;;12.25;;
83632;SDS011;73595;53.084;6.696;2024-01-30T05:48:08;18.02;;;11.70;;
83632;SDS011;73595;53.084;6.696;2024-01-30T05:50:33;20.17;;;12.00;;
83632;SDS011;73595;53.084;6.696;2024-01-30T05:52:58;20.45;;;11.85;;
83632;SDS011;73595;53.084;6.696;2024-01-30T05:55:24;20.02;;;11.55;;
83632;SDS011;73595;53.084;6.696;2024-01-30T05:57:49;19.05;;;11.77;;
83632;SDS011;73595;53.084;6.696;2024-01-30T06:00:17;18.52;;;11.32;;
83632;SDS011;73595;53.084;6.696;2024-01-30T06:02:42;16.75;;;11.63;;
83632;SDS011;73595;53.084;6.696;2024-01-30T06:05:07;17.58;;;11.18;;
83632;SDS011;73595;53.084;6.696;2024-01-30T06:07:34;18.15;;;11.00;;
83632;SDS011;73595;53.084;6.696;2024-01-30T06:10:01;19.55;;;10.93;;
83632;SDS011;73595;53.084;6.696;2024-01-30T06:12:28;21.85;;;11.63;;
83632;SDS011;73595;53.084;6.696;2024-01-30T06:14:53;18.65;;;12.25;;
83632;SDS011;73595;53.084;6.696;2024-01-30T06:17:21;17.95;;;11.45;;
83632;SDS011;73595;53.084;6.696;2024-01-30T06:19:47;18.58;;;11.50;;
83632;SDS011;73595;53.084;6.696;2024-01-30T06:22:12;18.33;;;11.68;;
83632;SDS011;73595;53.084;6.696;2024-01-30T06:24:38;15.35;;;10.93;;
83632;SDS011;73595;53.084;6.696;2024-01-30T06:27:03;20.38;;;11.10;;
83632;SDS011;73595;53.084;6.696;2024-01-30T06:29:29;21.33;;;11.85;;
83632;SDS011;73595;53.084;6.696;2024-01-30T06:31:54;20.13;;;11.50;;
83632;SDS011;73595;53.084;6.696;2024-01-30T06:34:19;17.27;;;11.65;;
83632;SDS011;73595;53.084;6.696;2024-01-30T06:36:45;19.10;;;11.13;;
83632;SDS011;73595;53.084;6.696;2024-01-30T06:39:10;17.65;;;11.50;;
83632;SDS011;73595;53.084;6.696;2024-01-30T06:41:35;18.10;;;11.27;;
83632;SDS011;73595;53.084;6.696;2024-01-30T06:44:04;18.23;;;11.68;;
83632;SDS011;73595;53.084;6.696;2024-01-30T06:46:31;20.08;;;12.60;;
83632;SDS011;73595;53.084;6.696;2024-01-30T06:48:57;16.88;;;11.10;;
83632;SDS011;73595;53.084;6.696;2024-01-30T06:51:26;17.08;;;11.32;;
83632;SDS011;73595;53.084;6.696;2024-01-30T06:53:51;16.60;;;11.52;;
83632;SDS011;73595;53.084;6.696;2024-01-30T06:56:17;17.45;;;11.25;;
83632;SDS011;73595;53.084;6.696;2024-01-30T06:58:46;20.80;;;11.85;;
83632;SDS011;73595;53.084;6.696;2024-01-30T07:01:15;19.48;;;11.25;;
83632;SDS011;73595;53.084;6.696;2024-01-30T07:03:41;17.42;;;11.30;;
83632;SDS011;73595;53.084;6.696;2024-01-30T07:06:07;17.13;;;11.35;;
83632;SDS011;73595;53.084;6.696;2024-01-30T07:08:32;18.95;;;11.45;;
83632;SDS011;73595;53.084;6.696;2024-01-30T07:10:58;15.85;;;10.88;;
83632;SDS011;73595;53.084;6.696;2024-01-30T07:13:23;19.60;;;11.45;;
83632;SDS011;73595;53.084;6.696;2024-01-30T07:15:49;19.77;;;11.63;;
83632;SDS011;73595;53.084;6.696;2024-01-30T07:18:14;16.27;;;11.30;;
83632;SDS011;73595;53.084;6.696;2024-01-30T07:20:40;19.15;;;12.02;;
83632;SDS011;73595;53.084;6.696;2024-01-30T07:23:11;16.27;;;11.80;;
83632;SDS011;73595;53.084;6.696;2024-01-30T07:25:40;16.25;;;11.50;;
83632;SDS011;73595;53.084;6.696;2024-01-30T07:28:06;18.25;;;12.05;;
83632;SDS011;73595;53.084;6.696;2024-01-30T07:30:34;16.63;;;11.90;;
83632;SDS011;73595;53.084;6.696;2024-01-30T07:32:59;22.63;;;11.75;;
83632;SDS011;73595;53.084;6.696;2024-01-30T07:35:25;16.23;;;11.50;;
83632;SDS011;73595;53.084;6.696;2024-01-30T07:37:50;20.50;;;11.65;;
83632;SDS011;73595;53.084;6.696;2024-01-30T07:40:16;17.90;;;12.18;;
83632;SDS011;73595;53.084;6.696;2024-01-30T07:42:42;17.92;;;11.57;;
83632;SDS011;73595;53.084;6.696;2024-01-30T07:45:07;19.25;;;12.48;;
83632;SDS011;73595;53.084;6.696;2024-01-30T07:47:33;16.58;;;11.50;;
83632;SDS011;73595;53.084;6.696;2024-01-30T07:49:59;15.98;;;10.95;;
83632;SDS011;73595;53.084;6.696;2024-01-30T07:52:24;22.42;;;12.43;;
83632;SDS011;73595;53.084;6.696;2024-01-30T07:54:50;20.02;;;11.25;;
83632;SDS011;73595;53.084;6.696;2024-01-30T07:57:16;22.60;;;11.30;;
83632;SDS011;73595;53.084;6.696;2024-01-30T07:59:42;16.80;;;11.57;;
83632;SDS011;73595;53.084;6.696;2024-01-30T08:02:09;17.17;;;11.45;;
83632;SDS011;73595;53.084;6.696;2024-01-30T08:04:35;18.05;;;11.48;;
83632;SDS011;73595;53.084;6.696;2024-01-30T08:07:00;17.60;;;11.07;;
83632;SDS011;73595;53.084;6.696;2024-01-30T08:09:25;17.30;;;11.27;;
83632;SDS011;73595;53.084;6.696;2024-01-30T08:11:51;19.05;;;12.07;;
83632;SDS011;73595;53.084;6.696;2024-01-30T08:14:16;22.20;;;11.38;;
83632;SDS011;73595;53.084;6.696;2024-01-30T08:16:41;18.23;;;11.80;;
83632;SDS011;73595;53.084;6.696;2024-01-30T08:19:07;18.83;;;11.18;;
83632;SDS011;73595;53.084;6.696;2024-01-30T08:21:32;17.80;;;11.48;;
83632;SDS011;73595;53.084;6.696;2024-01-30T08:24:01;17.25;;;11.05;;
83632;SDS011;73595;53.084;6.696;2024-01-30T08:26:28;20.58;;;11.65;;
83632;SDS011;73595;53.084;6.696;2024-01-30T08:28:53;15.43;;;11.25;;
83632;SDS011;73595;53.084;6.696;2024-01-30T08:31:19;18.08;;;11.45;;
83632;SDS011;73595;53.084;6.696;2024-01-30T08:33:44;18.73;;;11.23;;
83632;SDS011;73595;53.084;6.696;2024-01-30T08:36:10;17.85;;;11.35;;
83632;SDS011;73595;53.084;6.696;2024-01-30T08:38:35;17.17;;;11.05;;
83632;SDS011;73595;53.084;6.696;2024-01-30T08:41:00;16.85;;;10.80;;
83632;SDS011;73595;53.084;6.696;2024-01-30T08:43:26;17.98;;;10.90;;
83632;SDS011;73595;53.084;6.696;2024-01-30T08:45:51;20.48;;;10.98;;
83632;SDS011;73595;53.084;6.696;2024-01-30T08:48:17;16.00;;;10.13;;
83632;SDS011;73595;53.084;6.696;2024-01-30T08:50:42;19.35;;;11.15;;
83632;SDS011;73595;53.084;6.696;2024-01-30T08:53:08;17.23;;;11.38;;
83632;SDS011;73595;53.084;6.696;2024-01-30T08:55:33;17.25;;;10.32;;
83632;SDS011;73595;53.084;6.696;2024-01-30T08:57:58;16.00;;;10.60;;
83632;SDS011;73595;53.084;6.696;2024-01-30T09:00:24;18.25;;;10.55;;
83632;SDS011;73595;53.084;6.696;2024-01-30T09:02:50;15.05;;;10.45;;
83632;SDS011;73595;53.084;6.696;2024-01-30T09:05:15;15.10;;;9.77;;
83632;SDS011;73595;53.084;6.696;2024-01-30T09:07:40;16.75;;;10.73;;
83632;SDS011;73595;53.084;6.696;2024-01-30T09:10:06;17.40;;;10.45;;
83632;SDS011;73595;53.084;6.696;2024-01-30T09:12:31;15.43;;;9.65;;
83632;SDS011;73595;53.084;6.696;2024-01-30T09:14:57;17.60;;;10.57;;
83632;SDS011;73595;53.084;6.696;2024-01-30T09:17:22;18.08;;;10.35;;
83632;SDS011;73595;53.084;6.696;2024-01-30T09:19:47;18.67;;;10.98;;
83632;SDS011;73595;53.084;6.696;2024-01-30T09:22:13;16.67;;;10.35;;
83632;SDS011;73595;53.084;6.696;2024-01-30T09:24:38;23.75;;;10.23;;
83632;SDS011;73595;53.084;6.696;2024-01-30T09:27:04;19.52;;;10.82;;
83632;SDS011;73595;53.084;6.696;2024-01-30T09:29:30;20.67;;;10.25;;
83632;SDS011;73595;53.084;6.696;2024-01-30T09:31:55;21.85;;;10.85;;
83632;SDS011;73595;53.084;6.696;2024-01-30T09:34:20;19.35;;;10.38;;
83632;SDS011;73595;53.084;6.696;2024-01-30T09:36:46;18.30;;;10.27;;
83632;SDS011;73595;53.084;6.696;2024-01-30T09:39:11;21.20;;;10.68;;
83632;SDS011;73595;53.084;6.696;2024-01-30T09:41:44;18.05;;;9.95;;
83632;SDS011;73595;53.084;6.696;2024-01-30T09:44:13;16.00;;;9.73;;
83632;SDS011;73595;53.084;6.696;2024-01-30T09:46:40;17.65;;;9.77;;
83632;SDS011;73595;53.084;6.696;2024-01-30T09:49:08;18.00;;;10.55;;
83632;SDS011;73595;53.084;6.696;2024-01-30T09:51:34;16.27;;;10.05;;
83632;SDS011;73595;53.084;6.696;2024-01-30T09:54:00;15.85;;;9.60;;
83632;SDS011;73595;53.084;6.696;2024-01-30T09:56:27;15.15;;;9.65;;
83632;SDS011;73595;53.084;6.696;2024-01-30T09:58:53;17.92;;;9.55;;
83632;SDS011;73595;53.084;6.696;2024-01-30T10:01:19;15.50;;;9.52;;
83632;SDS011;73595;53.084;6.696;2024-01-30T10:03:45;17.60;;;10.20;;
83632;SDS011;73595;53.084;6.696;2024-01-30T10:06:10;18.42;;;9.65;;
83632;SDS011;73595;53.084;6.696;2024-01-30T10:08:36;16.60;;;10.13;;
83632;SDS011;73595;53.084;6.696;2024-01-30T10:11:02;15.95;;;9.65;;
83632;SDS011;73595;53.084;6.696;2024-01-30T10:13:28;15.25;;;9.05;;
83632;SDS011;73595;53.084;6.696;2024-01-30T10:15:54;15.20;;;9.68;;
83632;SDS011;73595;53.084;6.696;2024-01-30T10:18:20;16.95;;;10.13;;
83632;SDS011;73595;53.084;6.696;2024-01-30T10:20:47;20.48;;;10.30;;
83632;SDS011;73595;53.084;6.696;2024-01-30T10:23:12;18.20;;;10.30;;
83632;SDS011;73595;53.084;6.696;2024-01-30T10:25:38;16.42;;;9.68;;
83632;SDS011;73595;53.084;6.696;2024-01-30T10:28:03;17.40;;;10.38;;
83632;SDS011;73595;53.084;6.696;2024-01-30T10:30:29;21.38;;;10.35;;
83632;SDS011;73595;53.084;6.696;2024-01-30T10:32:54;16.02;;;9.43;;
83632;SDS011;73595;53.084;6.696;2024-01-30T10:35:20;15.57;;;9.00;;
83632;SDS011;73595;53.084;6.696;2024-01-30T10:37:46;18.27;;;10.13;;
83632;SDS011;73595;53.084;6.696;2024-01-30T10:40:13;18.05;;;9.90;;
83632;SDS011;73595;53.084;6.696;2024-01-30T10:42:40;19.20;;;10.45;;
83632;SDS011;73595;53.084;6.696;2024-01-30T10:47:44;18.67;;;10.30;;
83632;SDS011;73595;53.084;6.696;2024-01-30T10:50:15;17.60;;;9.90;;
83632;SDS011;73595;53.084;6.696;2024-01-30T10:52:41;21.13;;;10.80;;
83632;SDS011;73595;53.084;6.696;2024-01-30T10:55:07;16.67;;;10.48;;
83632;SDS011;73595;53.084;6.696;2024-01-30T10:57:34;20.10;;;10.82;;
83632;SDS011;73595;53.084;6.696;2024-01-30T11:00:01;19.15;;;10.32;;
83632;SDS011;73595;53.084;6.696;2024-01-30T11:02:30;18.83;;;10.98;;
83632;SDS011;73595;53.084;6.696;2024-01-30T11:04:58;18.27;;;10.90;;
83632;SDS011;73595;53.084;6.696;2024-01-30T11:07:25;20.55;;;10.65;;
83632;SDS011;73595;53.084;6.696;2024-01-30T11:12:24;15.88;;;9.90;;
83632;SDS011;73595;53.084;6.696;2024-01-30T11:15:01;21.73;;;10.70;;
83632;SDS011;73595;53.084;6.696;2024-01-30T11:17:42;19.98;;;10.90;;
83632;SDS011;73595;53.084;6.696;2024-01-30T11:20:11;20.00;;;10.90;;
83632;SDS011;73595;53.084;6.696;2024-01-30T11:22:40;20.02;;;11.40;;
83632;SDS011;73595;53.084;6.696;2024-01-30T11:25:17;27.50;;;11.55;;
83632;SDS011;73595;53.084;6.696;2024-01-30T11:27:44;19.65;;;10.75;;
83632;SDS011;73595;53.084;6.696;2024-01-30T11:30:11;19.70;;;11.20;;
83632;SDS011;73595;53.084;6.696;2024-01-30T11:35:24;23.63;;;10.20;;
83632;SDS011;73595;53.084;6.696;2024-01-30T11:37:50;21.95;;;11.60;;
83632;SDS011;73595;53.084;6.696;2024-01-30T11:40:16;23.38;;;13.50;;
83632;SDS011;73595;53.084;6.696;2024-01-30T11:42:41;22.17;;;13.70;;
83632;SDS011;73595;53.084;6.696;2024-01-30T11:45:08;21.15;;;13.73;;
83632;SDS011;73595;53.084;6.696;2024-01-30T11:47:34;33.38;;;14.70;;
83632;SDS011;73595;53.084;6.696;2024-01-30T11:50:02;23.65;;;13.55;;
83632;SDS011;73595;53.084;6.696;2024-01-30T11:52:28;22.15;;;13.13;;
83632;SDS011;73595;53.084;6.696;2024-01-30T11:54:54;23.60;;;13.38;;
83632;SDS011;73595;53.084;6.696;2024-01-30T11:57:19;25.63;;;13.02;;
83632;SDS011;73595;53.084;6.696;2024-01-30T11:59:44;27.05;;;13.50;;
83632;SDS011;73595;53.084;6.696;2024-01-30T12:02:15;20.65;;;11.65;;
83632;SDS011;73595;53.084;6.696;2024-01-30T12:04:40;21.42;;;10.80;;
83632;SDS011;73595;53.084;6.696;2024-01-30T12:07:06;26.58;;;8.98;;
83632;SDS011;73595;53.084;6.696;2024-01-30T12:09:32;22.67;;;8.05;;
83632;SDS011;73595;53.084;6.696;2024-01-30T12:11:57;26.40;;;7.00;;
83632;SDS011;73595;53.084;6.696;2024-01-30T12:14:23;25.17;;;7.90;;
83632;SDS011;73595;53.084;6.696;2024-01-30T12:16:50;26.40;;;6.57;;
83632;SDS011;73595;53.084;6.696;2024-01-30T12:19:24;27.58;;;6.05;;
83632;SDS011;73595;53.084;6.696;2024-01-30T12:21:54;20.45;;;5.55;;
83632;SDS011;73595;53.084;6.696;2024-01-30T12:24:21;20.02;;;5.50;;
83632;SDS011;73595;53.084;6.696;2024-01-30T12:26:46;18.83;;;4.80;;
83632;SDS011;73595;53.084;6.696;2024-01-30T12:29:12;15.63;;;5.40;;
83632;SDS011;73595;53.084;6.696;2024-01-30T12:31:41;24.63;;;5.10;;
83632;SDS011;73595;53.084;6.696;2024-01-30T12:34:07;19.15;;;4.97;;
83632;SDS011;73595;53.084;6.696;2024-01-30T12:36:33;17.52;;;5.03;;
83632;SDS011;73595;53.084;6.696;2024-01-30T12:38:59;13.95;;;4.35;;
83632;SDS011;73595;53.084;6.696;2024-01-30T12:41:25;10.40;;;3.85;;
83632;SDS011;73595;53.084;6.696;2024-01-30T12:43:54;14.40;;;3.78;;
83632;SDS011;73595;53.084;6.696;2024-01-30T12:46:24;10.10;;;3.58;;
83632;SDS011;73595;53.084;6.696;2024-01-30T12:48:50;9.02;;;2.80;;
83632;SDS011;73595;53.084;6.696;2024-01-30T12:51:16;7.93;;;2.45;;
83632;SDS011;73595;53.084;6.696;2024-01-30T12:53:41;7.03;;;2.50;;
83632;SDS011;73595;53.084;6.696;2024-01-30T12:56:06;5.93;;;2.17;;
83632;SDS011;73595;53.084;6.696;2024-01-30T12:58:32;9.93;;;2.25;;
83632;SDS011;73595;53.084;6.696;2024-01-30T13:00:57;6.63;;;1.85;;
83632;SDS011;73595;53.084;6.696;2024-01-30T13:03:23;7.13;;;2.10;;
83632;SDS011;73595;53.084;6.696;2024-01-30T13:05:48;4.55;;;1.60;;
83632;SDS011;73595;53.084;6.696;2024-01-30T13:08:14;3.78;;;1.40;;
83632;SDS011;73595;53.084;6.696;2024-01-30T13:10:40;4.75;;;1.15;;
83632;SDS011;73595;53.084;6.696;2024-01-30T13:13:06;4.22;;;1.02;;
83632;SDS011;73595;53.084;6.696;2024-01-30T13:15:31;2.83;;;0.90;;
83632;SDS011;73595;53.084;6.696;2024-01-30T13:17:58;3.38;;;0.90;;
83632;SDS011;73595;53.084;6.696;2024-01-30T13:20:23;2.42;;;1.02;;
83632;SDS011;73595;53.084;6.696;2024-01-30T13:22:48;2.00;;;0.88;;
83632;SDS011;73595;53.084;6.696;2024-01-30T13:25:15;3.15;;;0.60;;
83632;SDS011;73595;53.084;6.696;2024-01-30T13:27:40;4.28;;;0.93;;
83632;SDS011;73595;53.084;6.696;2024-01-30T13:30:06;2.85;;;0.90;;
83632;SDS011;73595;53.084;6.696;2024-01-30T13:32:33;1.90;;;0.70;;
83632;SDS011;73595;53.084;6.696;2024-01-30T13:34:59;3.08;;;0.70;;
83632;SDS011;73595;53.084;6.696;2024-01-30T13:37:25;1.98;;;0.55;;
83632;SDS011;73595;53.084;6.696;2024-01-30T13:39:50;3.13;;;0.80;;
83632;SDS011;73595;53.084;6.696;2024-01-30T13:42:16;3.75;;;0.88;;
83632;SDS011;73595;53.084;6.696;2024-01-30T13:44:42;2.75;;;0.80;;
83632;SDS011;73595;53.084;6.696;2024-01-30T13:47:10;3.45;;;0.80;;
83632;SDS011;73595;53.084;6.696;2024-01-30T13:49:37;2.00;;;0.70;;
83632;SDS011;73595;53.084;6.696;2024-01-30T13:52:04;2.83;;;0.80;;
83632;SDS011;73595;53.084;6.696;2024-01-30T13:54:29;2.25;;;0.68;;
83632;SDS011;73595;53.084;6.696;2024-01-30T13:56:55;1.77;;;0.82;;
83632;SDS011;73595;53.084;6.696;2024-01-30T13:59:22;4.50;;;0.90;;
83632;SDS011;73595;53.084;6.696;2024-01-30T14:01:50;3.50;;;0.75;;
83632;SDS011;73595;53.084;6.696;2024-01-30T14:04:16;7.03;;;0.90;;
83632;SDS011;73595;53.084;6.696;2024-01-30T14:06:42;3.22;;;0.65;;
83632;SDS011;73595;53.084;6.696;2024-01-30T14:09:09;5.30;;;0.77;;
83632;SDS011;73595;53.084;6.696;2024-01-30T14:11:35;5.63;;;0.93;;
83632;SDS011;73595;53.084;6.696;2024-01-30T14:14:00;2.80;;;0.70;;
83632;SDS011;73595;53.084;6.696;2024-01-30T14:16:26;3.72;;;0.80;;
83632;SDS011;73595;53.084;6.696;2024-01-30T14:18:51;1.17;;;0.70;;
83632;SDS011;73595;53.084;6.696;2024-01-30T14:21:19;4.63;;;0.95;;
83632;SDS011;73595;53.084;6.696;2024-01-30T14:23:45;3.10;;;1.10;;
83632;SDS011;73595;53.084;6.696;2024-01-30T14:26:10;1.70;;;0.70;;
83632;SDS011;73595;53.084;6.696;2024-01-30T14:28:35;3.70;;;0.90;;